createdAt,value
2018-04-15T00:00:17.553Z,20.30
2018-04-15T00:01:17.522Z,19.60
2018-04-15T00:02:17.531Z,19.40
2018-04-15T00:03:38.603Z,19.00
2018-04-15T00:04:17.489Z,19.50
2018-04-15T00:05:17.489Z,20.70
2018-04-15T00:06:17.485Z,20.40
2018-04-15T00:07:17.468Z,20.40
2018-04-15T00:08:17.433Z,20.20
2018-04-15T00:09:17.447Z,20.40
2018-04-15T00:10:17.407Z,20.30
2018-04-15T00:11:17.402Z,19.80
2018-04-15T00:12:17.375Z,20.60
2018-04-15T00:13:17.377Z,20.70
2018-04-15T00:14:17.349Z,19.90
2018-04-15T00:15:17.339Z,20.50
2018-04-15T00:16:17.324Z,20.10
2018-04-15T00:17:17.310Z,20.10
2018-04-15T00:18:17.321Z,20.80
2018-04-15T00:19:17.281Z,20.70
2018-04-15T00:20:17.268Z,21.10
2018-04-15T00:21:17.258Z,20.10
2018-04-15T00:22:17.248Z,19.80
2018-04-15T00:23:17.245Z,20.40
2018-04-15T00:24:17.214Z,20.90
2018-04-15T00:25:17.199Z,20.00
2018-04-15T00:26:17.202Z,20.70
2018-04-15T00:27:17.181Z,20.10
2018-04-15T00:28:17.162Z,20.80
2018-04-15T00:29:17.168Z,19.70
2018-04-15T00:30:17.153Z,20.80
2018-04-15T00:31:17.121Z,20.30
2018-04-15T00:32:17.111Z,20.40
2018-04-15T00:33:17.092Z,20.20
2018-04-15T00:34:17.086Z,20.70
2018-04-15T00:35:17.081Z,20.80
2018-04-15T00:36:17.050Z,21.10
2018-04-15T00:37:17.043Z,20.30
2018-04-15T00:38:17.028Z,20.10
2018-04-15T00:39:17.012Z,21.50
2018-04-15T00:40:17.045Z,21.00
2018-04-15T00:41:16.982Z,20.20
2018-04-15T00:42:16.967Z,20.00
2018-04-15T00:43:16.960Z,20.70
2018-04-15T00:44:16.944Z,20.80
2018-04-15T00:45:16.949Z,22.10
2018-04-15T00:46:16.949Z,21.70
2018-04-15T00:47:16.917Z,21.80
2018-04-15T00:48:16.893Z,22.00
2018-04-15T00:49:16.873Z,20.50
2018-04-15T00:50:16.866Z,20.70
2018-04-15T00:51:16.848Z,20.90
2018-04-15T00:52:16.875Z,21.80
2018-04-15T00:53:16.819Z,21.40
2018-04-15T00:54:16.806Z,21.30
2018-04-15T00:55:16.795Z,21.90
2018-04-15T00:56:16.802Z,21.20
2018-04-15T00:57:16.764Z,21.70
2018-04-15T00:58:16.770Z,21.60
2018-04-15T00:59:16.756Z,21.90
2018-04-15T01:00:16.730Z,22.10
2018-04-15T01:01:16.723Z,21.60
2018-04-15T01:02:16.703Z,22.00
2018-04-15T01:03:16.687Z,21.70
2018-04-15T01:04:16.695Z,22.20
2018-04-15T01:05:16.657Z,21.50
2018-04-15T01:06:16.641Z,22.20
2018-04-15T01:07:16.671Z,21.70
2018-04-15T01:08:16.615Z,22.30
2018-04-15T01:09:16.601Z,21.80
2018-04-15T01:10:16.613Z,21.90
2018-04-15T01:11:16.585Z,20.60
2018-04-15T01:12:16.584Z,20.70
2018-04-15T01:13:16.552Z,20.30
2018-04-15T01:14:16.536Z,19.90
2018-04-15T01:15:16.520Z,20.80
2018-04-15T01:16:16.520Z,20.30
2018-04-15T01:17:16.495Z,20.10
2018-04-15T01:18:16.499Z,20.60
2018-04-15T01:19:16.468Z,20.60
2018-04-15T01:20:16.457Z,20.90
2018-04-15T01:21:16.457Z,20.20
2018-04-15T01:22:16.435Z,20.80
2018-04-15T01:23:16.434Z,21.50
2018-04-15T01:24:16.400Z,20.30
2018-04-15T01:25:16.400Z,21.00
2018-04-15T01:26:16.373Z,20.80
2018-04-15T01:27:16.433Z,20.20
2018-04-15T01:28:16.343Z,20.30
2018-04-15T01:29:16.347Z,20.60
2018-04-15T01:30:16.317Z,20.60
2018-04-15T01:31:16.314Z,21.60
2018-04-15T01:32:16.320Z,20.70
2018-04-15T01:33:16.305Z,20.70
2018-04-15T01:34:16.261Z,21.10
2018-04-15T01:35:16.269Z,21.10
2018-04-15T01:36:16.236Z,21.20
2018-04-15T01:37:16.219Z,21.20
2018-04-15T01:38:16.214Z,20.10
2018-04-15T01:39:16.210Z,20.50
2018-04-15T01:40:16.191Z,19.60
2018-04-15T01:41:16.190Z,19.90
2018-04-15T01:42:16.151Z,19.30
2018-04-15T01:43:16.140Z,19.40
2018-04-15T01:44:16.643Z,19.60
2018-04-15T01:45:16.111Z,19.00
2018-04-15T01:46:17.107Z,19.60
2018-04-15T01:47:16.083Z,18.70
2018-04-15T01:48:16.074Z,18.80
2018-04-15T01:49:16.060Z,18.50
2018-04-15T01:50:16.062Z,18.60
2018-04-15T01:51:16.044Z,18.70
2018-04-15T01:52:16.046Z,19.10
2018-04-15T01:53:16.005Z,19.10
2018-04-15T01:54:16.002Z,18.80
2018-04-15T01:55:16.027Z,18.00
2018-04-15T01:56:15.964Z,18.50
2018-04-15T01:57:15.947Z,18.70
2018-04-15T01:58:15.946Z,18.30
2018-04-15T01:59:15.929Z,18.80
2018-04-15T02:00:15.923Z,18.00
2018-04-15T02:01:15.906Z,17.30
2018-04-15T02:02:15.905Z,18.10
2018-04-15T02:03:15.863Z,18.30
2018-04-15T02:04:15.850Z,17.80
2018-04-15T02:05:15.849Z,17.60
2018-04-15T02:06:15.838Z,17.30
2018-04-15T02:07:15.814Z,16.90
2018-04-15T02:08:15.816Z,17.50
2018-04-15T02:09:15.784Z,16.10
2018-04-15T02:10:15.767Z,16.10
2018-04-15T02:11:15.775Z,15.50
2018-04-15T02:12:15.746Z,15.50
2018-04-15T02:13:15.734Z,15.40
2018-04-15T02:14:15.716Z,15.10
2018-04-15T02:15:15.698Z,13.80
2018-04-15T02:16:15.705Z,14.60
2018-04-15T02:17:15.692Z,14.60
2018-04-15T02:18:15.674Z,14.80
2018-04-15T02:19:15.646Z,14.50
2018-04-15T02:20:15.645Z,14.60
2018-04-15T02:21:15.617Z,14.70
2018-04-15T02:22:15.604Z,15.40
2018-04-15T02:23:15.592Z,15.80
2018-04-15T02:24:15.591Z,15.30
2018-04-15T02:25:15.561Z,15.60
2018-04-15T02:26:15.558Z,15.70
2018-04-15T02:27:15.531Z,15.80
2018-04-15T02:28:15.521Z,15.50
2018-04-15T02:29:15.512Z,14.50
2018-04-15T02:30:15.508Z,15.30
2018-04-15T02:31:15.475Z,14.80
2018-04-15T02:32:15.493Z,15.50
2018-04-15T02:33:15.446Z,15.50
2018-04-15T02:34:15.435Z,14.70
2018-04-15T02:35:15.420Z,14.90
2018-04-15T02:36:15.411Z,14.90
2018-04-15T02:37:15.413Z,15.00
2018-04-15T02:38:15.383Z,15.00
2018-04-15T02:39:15.381Z,14.90
2018-04-15T02:40:15.370Z,15.40
2018-04-15T02:41:15.338Z,15.80
2018-04-15T02:42:15.338Z,16.00
2018-04-15T02:43:15.314Z,15.40
2018-04-15T02:44:15.299Z,15.70
2018-04-15T02:45:15.278Z,16.10
2018-04-15T02:46:15.266Z,15.80
2018-04-15T02:47:15.278Z,15.10
2018-04-15T02:48:15.236Z,14.50
2018-04-15T02:49:15.236Z,14.60
2018-04-15T02:50:15.208Z,14.70
2018-04-15T02:51:15.195Z,14.70
2018-04-15T02:52:15.200Z,14.40
2018-04-15T02:53:15.173Z,14.40
2018-04-15T02:54:15.177Z,14.80
2018-04-15T02:55:15.144Z,14.00
2018-04-15T02:56:15.128Z,14.20
2018-04-15T02:57:15.112Z,13.90
2018-04-15T02:58:15.100Z,13.80
2018-04-15T02:59:15.086Z,14.30
2018-04-15T03:00:15.084Z,13.30
2018-04-15T03:01:15.059Z,13.50
2018-04-15T03:02:15.045Z,13.30
2018-04-15T03:03:15.051Z,12.90
2018-04-15T03:04:15.663Z,12.50
2018-04-15T03:05:15.024Z,12.90
2018-04-15T03:06:15.000Z,13.30
2018-04-15T03:07:14.989Z,13.10
2018-04-15T03:08:15.000Z,12.60
2018-04-15T03:09:14.954Z,12.60
2018-04-15T03:10:14.925Z,12.30
2018-04-15T03:11:14.946Z,11.70
2018-04-15T03:12:14.913Z,12.10
2018-04-15T03:13:14.897Z,11.80
2018-04-15T03:14:14.884Z,12.30
2018-04-15T03:15:14.855Z,11.50
2018-04-15T03:16:14.853Z,11.50
2018-04-15T03:17:14.842Z,12.40
2018-04-15T03:18:14.812Z,12.00
2018-04-15T03:19:14.796Z,12.10
2018-04-15T03:20:14.795Z,12.10
2018-04-15T03:21:14.782Z,12.70
2018-04-15T03:22:14.775Z,12.80
2018-04-15T03:23:14.740Z,13.20
2018-04-15T03:24:14.726Z,12.90
2018-04-15T03:25:14.719Z,12.50
2018-04-15T03:26:14.699Z,13.20
2018-04-15T03:27:14.685Z,13.20
2018-04-15T03:28:14.690Z,13.80
2018-04-15T03:29:14.651Z,13.80
2018-04-15T03:30:14.642Z,14.00
2018-04-15T03:31:14.622Z,13.60
2018-04-15T03:32:14.608Z,14.30
2018-04-15T03:33:14.609Z,14.40
2018-04-15T03:34:14.580Z,13.50
2018-04-15T03:35:14.563Z,14.10
2018-04-15T03:36:14.545Z,14.10
2018-04-15T03:37:14.545Z,14.20
2018-04-15T03:38:14.521Z,14.80
2018-04-15T03:39:14.513Z,14.40
2018-04-15T03:40:14.493Z,14.60
2018-04-15T03:41:14.484Z,14.20
2018-04-15T03:42:14.481Z,15.00
2018-04-15T03:43:14.468Z,14.30
2018-04-15T03:44:14.430Z,15.10
2018-04-15T03:45:14.423Z,15.20
2018-04-15T03:46:14.414Z,14.30
2018-04-15T03:47:14.419Z,15.00
2018-04-15T03:48:14.372Z,15.60
2018-04-15T03:49:14.356Z,14.90
2018-04-15T03:50:14.340Z,15.30
2018-04-15T03:51:14.339Z,15.20
2018-04-15T03:52:14.317Z,15.40
2018-04-15T03:53:14.317Z,15.20
2018-04-15T03:54:14.312Z,15.20
2018-04-15T03:55:14.268Z,15.70
2018-04-15T03:56:14.252Z,16.40
2018-04-15T03:57:16.135Z,15.40
2018-04-15T03:58:35.236Z,14.60
2018-04-15T03:59:14.228Z,15.80
2018-04-15T04:00:14.213Z,15.80
2018-04-15T04:01:14.179Z,16.00
2018-04-15T04:02:14.183Z,16.00
2018-04-15T04:03:14.157Z,15.90
2018-04-15T04:04:14.138Z,16.20
2018-04-15T04:05:14.128Z,15.70
2018-04-15T04:06:35.132Z,15.90
2018-04-15T04:07:14.094Z,16.10
2018-04-15T04:08:14.097Z,16.20
2018-04-15T04:09:14.071Z,16.60
2018-04-15T04:10:14.050Z,16.30
2018-04-15T04:11:14.037Z,15.90
2018-04-15T04:12:35.037Z,15.10
2018-04-15T04:13:14.005Z,15.10
2018-04-15T04:14:14.000Z,15.40
2018-04-15T04:15:13.978Z,15.70
2018-04-15T04:16:13.964Z,15.00
2018-04-15T04:17:13.968Z,14.90
2018-04-15T04:18:13.933Z,14.70
2018-04-15T04:19:13.932Z,14.70
2018-04-15T04:20:13.908Z,14.20
2018-04-15T04:21:13.896Z,14.80
2018-04-15T04:22:13.874Z,14.80
2018-04-15T04:23:13.872Z,14.40
2018-04-15T04:24:13.844Z,14.10
2018-04-15T04:25:13.850Z,13.80
2018-04-15T04:26:13.818Z,14.40
2018-04-15T04:27:13.797Z,12.90
2018-04-15T04:28:13.786Z,13.00
2018-04-15T04:29:13.765Z,13.10
2018-04-15T04:30:13.760Z,12.80
2018-04-15T04:31:13.779Z,12.70
2018-04-15T04:32:13.725Z,11.60
2018-04-15T04:33:13.711Z,11.90
2018-04-15T04:34:13.696Z,11.90
2018-04-15T04:35:13.684Z,12.30
2018-04-15T04:36:13.676Z,11.10
2018-04-15T04:37:13.684Z,10.90
2018-04-15T04:38:13.640Z,10.70
2018-04-15T04:39:13.657Z,10.10
2018-04-15T04:40:13.619Z,10.00
2018-04-15T04:41:13.595Z,10.40
2018-04-15T04:42:13.581Z,9.90
2018-04-15T04:43:13.580Z,9.80
2018-04-15T04:44:13.546Z,9.50
2018-04-15T04:45:13.561Z,9.30
2018-04-15T04:46:13.525Z,9.50
2018-04-15T04:47:13.506Z,9.20
2018-04-15T04:48:13.495Z,9.60
2018-04-15T04:49:13.476Z,9.70
2018-04-15T04:50:13.467Z,10.70
2018-04-15T04:51:13.463Z,10.50
2018-04-15T04:52:13.441Z,10.40
2018-04-15T04:53:13.418Z,10.60
2018-04-15T04:54:13.405Z,10.90
2018-04-15T04:55:13.390Z,11.00
2018-04-15T04:56:13.404Z,11.50
2018-04-15T04:57:13.371Z,11.40
2018-04-15T04:58:13.348Z,11.50
2018-04-15T04:59:14.181Z,10.70
2018-04-15T05:00:13.341Z,11.10
2018-04-15T05:01:13.304Z,11.40
2018-04-15T05:02:13.300Z,10.70
2018-04-15T05:03:13.279Z,10.70
2018-04-15T05:04:13.257Z,11.90
2018-04-15T05:05:13.270Z,11.60
2018-04-15T05:06:13.236Z,11.20
2018-04-15T05:07:13.214Z,11.40
2018-04-15T05:08:13.199Z,11.40
2018-04-15T05:09:13.206Z,11.60
2018-04-15T05:10:13.178Z,11.10
2018-04-15T05:11:13.178Z,10.90
2018-04-15T05:12:13.138Z,10.60
2018-04-15T05:13:13.134Z,11.20
2018-04-15T05:14:13.111Z,10.50
2018-04-15T05:15:13.099Z,11.20
2018-04-15T05:16:13.682Z,11.40
2018-04-15T05:17:13.080Z,11.40
2018-04-15T05:18:13.058Z,11.10
2018-04-15T05:19:13.047Z,11.20
2018-04-15T05:20:13.027Z,11.50
2018-04-15T05:21:13.019Z,11.70
2018-04-15T05:22:13.023Z,11.50
2018-04-15T05:23:12.987Z,10.80
2018-04-15T05:24:12.972Z,11.40
2018-04-15T05:25:12.952Z,10.60
2018-04-15T05:26:12.952Z,10.60
2018-04-15T05:27:12.944Z,10.70
2018-04-15T05:28:12.917Z,10.50
2018-04-15T05:29:12.900Z,11.10
2018-04-15T05:30:12.876Z,10.90
2018-04-15T05:31:12.868Z,10.70
2018-04-15T05:32:12.918Z,10.60
2018-04-15T05:33:12.935Z,9.60
2018-04-15T05:34:12.923Z,9.70
2018-04-15T05:35:12.819Z,9.90
2018-04-15T05:36:12.797Z,9.60
2018-04-15T05:37:12.795Z,8.20
2018-04-15T05:38:12.780Z,8.20
2018-04-15T05:39:12.751Z,8.40
2018-04-15T05:40:12.732Z,8.30
2018-04-15T05:41:12.743Z,8.60
2018-04-15T05:42:12.706Z,8.30
2018-04-15T05:43:12.693Z,8.60
2018-04-15T05:44:12.682Z,8.80
2018-04-15T05:45:12.667Z,9.30
2018-04-15T05:46:12.651Z,8.90
2018-04-15T05:47:12.728Z,9.10
2018-04-15T05:48:12.622Z,9.20
2018-04-15T05:49:12.622Z,9.00
2018-04-15T05:50:12.587Z,8.00
2018-04-15T05:51:12.582Z,8.00
2018-04-15T05:52:12.561Z,8.60
2018-04-15T05:53:12.550Z,7.80
2018-04-15T05:54:12.536Z,7.40
2018-04-15T05:55:12.535Z,8.20
2018-04-15T05:56:12.503Z,8.40
2018-04-15T05:57:12.489Z,7.60
2018-04-15T05:58:12.491Z,8.10
2018-04-15T05:59:12.461Z,8.70
2018-04-15T06:00:12.443Z,9.00
2018-04-15T06:01:12.430Z,8.90
2018-04-15T06:02:12.418Z,9.10
2018-04-15T06:03:12.418Z,9.40
2018-04-15T06:04:12.405Z,10.00
2018-04-15T06:05:12.401Z,10.70
2018-04-15T06:06:12.359Z,11.00
2018-04-15T06:07:12.347Z,12.20
2018-04-15T06:08:12.346Z,11.90
2018-04-15T06:09:12.316Z,13.30
2018-04-15T06:10:12.303Z,13.10
2018-04-15T06:11:12.288Z,12.80
2018-04-15T06:12:12.269Z,12.80
2018-04-15T06:13:12.253Z,13.50
2018-04-15T06:14:12.254Z,13.60
2018-04-15T06:15:12.246Z,13.70
2018-04-15T06:16:12.218Z,13.60
2018-04-15T06:17:12.204Z,13.00
2018-04-15T06:18:12.189Z,14.00
2018-04-15T06:19:12.170Z,13.70
2018-04-15T06:20:12.702Z,13.40
2018-04-15T06:21:12.138Z,13.10
2018-04-15T06:22:12.128Z,13.30
2018-04-15T06:23:12.116Z,14.00
2018-04-15T06:24:12.103Z,14.60
2018-04-15T06:25:12.086Z,14.20
2018-04-15T06:26:12.086Z,14.10
2018-04-15T06:27:12.058Z,14.40
2018-04-15T06:28:12.042Z,14.90
2018-04-15T06:29:12.027Z,14.20
2018-04-15T06:30:12.017Z,14.60
2018-04-15T06:31:12.668Z,14.30
2018-04-15T06:32:12.003Z,14.30
2018-04-15T06:33:11.971Z,14.80
2018-04-15T06:34:12.691Z,15.40
2018-04-15T06:35:11.937Z,14.30
2018-04-15T06:36:11.928Z,14.10
2018-04-15T06:37:11.921Z,13.50
2018-04-15T06:38:11.912Z,13.90
2018-04-15T06:39:11.898Z,14.10
2018-04-15T06:40:11.910Z,14.10
2018-04-15T06:41:11.856Z,13.40
2018-04-15T06:42:11.842Z,13.20
2018-04-15T06:43:11.844Z,12.80
2018-04-15T06:44:11.813Z,13.40
2018-04-15T06:45:11.798Z,13.60
2018-04-15T06:46:11.787Z,12.90
2018-04-15T06:47:11.775Z,11.90
2018-04-15T06:48:11.757Z,12.70
2018-04-15T06:49:11.788Z,12.40
2018-04-15T06:50:11.743Z,12.50
2018-04-15T06:51:11.716Z,12.60
2018-04-15T06:52:11.703Z,12.10
2018-04-15T06:53:11.686Z,12.60
2018-04-15T06:54:11.670Z,12.80
2018-04-15T06:55:11.676Z,12.30
2018-04-15T06:56:11.643Z,13.10
2018-04-15T06:57:11.626Z,11.70
2018-04-15T06:58:11.617Z,11.00
2018-04-15T06:59:11.606Z,11.30
2018-04-15T07:00:11.587Z,12.00
2018-04-15T07:01:11.595Z,12.00
2018-04-15T07:02:11.560Z,11.10
2018-04-15T07:03:11.548Z,11.30
2018-04-15T07:04:11.529Z,11.40
2018-04-15T07:05:11.518Z,10.60
2018-04-15T07:06:11.508Z,10.90
2018-04-15T07:07:11.510Z,10.70
2018-04-15T07:08:11.476Z,10.30
2018-04-15T07:09:11.462Z,10.10
2018-04-15T07:10:11.455Z,10.10
2018-04-15T07:11:11.729Z,9.90
2018-04-15T07:12:11.421Z,10.10
2018-04-15T07:13:11.420Z,10.30
2018-04-15T07:14:11.404Z,10.00
2018-04-15T07:15:11.381Z,9.80
2018-04-15T07:16:11.372Z,10.10
2018-04-15T07:17:13.175Z,9.80
2018-04-15T07:18:11.339Z,9.50
2018-04-15T07:19:11.342Z,8.80
2018-04-15T07:20:11.312Z,8.60
2018-04-15T07:21:11.306Z,9.00
2018-04-15T07:22:11.286Z,9.60
2018-04-15T07:23:11.270Z,9.80
2018-04-15T07:24:11.275Z,9.10
2018-04-15T07:25:11.246Z,9.40
2018-04-15T07:26:11.234Z,9.20
2018-04-15T07:27:11.215Z,9.00
2018-04-15T07:28:11.208Z,9.00
2018-04-15T07:29:11.203Z,8.80
2018-04-15T07:30:11.176Z,8.90
2018-04-15T07:31:11.162Z,9.00
2018-04-15T07:32:11.147Z,8.80
2018-04-15T07:33:11.136Z,8.50
2018-04-15T07:34:11.136Z,8.20
2018-04-15T07:35:11.109Z,7.50
2018-04-15T07:36:11.093Z,7.00
2018-04-15T07:37:11.084Z,7.20
2018-04-15T07:38:11.064Z,6.70
2018-04-15T07:39:11.072Z,5.70
2018-04-15T07:40:11.036Z,4.40
2018-04-15T07:41:11.023Z,3.70
2018-04-15T07:42:11.011Z,3.80
2018-04-15T07:43:10.998Z,4.20
2018-04-15T07:44:10.979Z,4.00
2018-04-15T07:45:10.986Z,4.20
2018-04-15T07:46:10.956Z,4.50
2018-04-15T07:47:10.937Z,4.60
2018-04-15T07:48:10.927Z,4.50
2018-04-15T07:49:10.914Z,4.70
2018-04-15T07:50:10.903Z,5.10
2018-04-15T07:51:10.901Z,5.60
2018-04-15T07:52:10.874Z,5.50
2018-04-15T07:53:11.719Z,5.70
2018-04-15T07:54:10.845Z,6.10
2018-04-15T07:55:10.848Z,5.70
2018-04-15T07:56:10.869Z,5.40
2018-04-15T07:57:10.818Z,5.60
2018-04-15T07:58:10.794Z,5.40
2018-04-15T07:59:10.782Z,5.80
2018-04-15T08:00:10.765Z,6.10
2018-04-15T08:01:10.768Z,5.70
2018-04-15T08:02:10.748Z,5.40
2018-04-15T08:03:10.724Z,6.00
2018-04-15T08:04:10.708Z,5.80
2018-04-15T08:05:10.692Z,5.90
2018-04-15T08:06:10.683Z,5.70
2018-04-15T08:07:10.684Z,6.10
2018-04-15T08:08:10.655Z,6.20
2018-04-15T08:09:10.640Z,6.00
2018-04-15T08:10:11.221Z,6.00
2018-04-15T08:11:10.615Z,5.60
2018-04-15T08:12:10.613Z,5.10
2018-04-15T08:13:10.605Z,5.40
2018-04-15T08:14:10.582Z,5.50
2018-04-15T08:15:10.566Z,5.70
2018-04-15T08:16:11.724Z,6.20
2018-04-15T08:17:10.562Z,5.80
2018-04-15T08:18:10.523Z,6.10
2018-04-15T08:19:10.522Z,6.90
2018-04-15T08:20:10.509Z,7.20
2018-04-15T08:21:10.483Z,6.90
2018-04-15T08:22:10.471Z,7.30
2018-04-15T08:23:10.459Z,7.20
2018-04-15T08:24:10.444Z,6.50
2018-04-15T08:25:10.453Z,6.50
2018-04-15T08:26:10.421Z,6.60
2018-04-15T08:27:10.406Z,6.70
2018-04-15T08:28:10.390Z,7.00
2018-04-15T08:29:10.397Z,6.50
2018-04-15T08:30:10.383Z,6.60
2018-04-15T08:31:10.362Z,6.80
2018-04-15T08:32:10.340Z,6.60
2018-04-15T08:33:10.340Z,6.80
2018-04-15T08:34:10.317Z,7.40
2018-04-15T08:35:10.303Z,7.80
2018-04-15T08:36:10.306Z,8.30
2018-04-15T08:37:10.294Z,8.20
2018-04-15T08:38:10.262Z,7.90
2018-04-15T08:39:10.255Z,6.70
2018-04-15T08:40:10.242Z,6.50
2018-04-15T08:41:10.228Z,5.60
2018-04-15T08:42:10.236Z,5.20
2018-04-15T08:43:10.202Z,5.20
2018-04-15T08:44:10.187Z,5.50
2018-04-15T08:45:10.181Z,5.70
2018-04-15T08:46:10.163Z,5.70
2018-04-15T08:47:10.155Z,5.20
2018-04-15T08:48:10.162Z,4.90
2018-04-15T08:49:10.132Z,3.90
2018-04-15T08:50:10.120Z,3.90
2018-04-15T08:51:10.110Z,3.60
2018-04-15T08:52:10.097Z,3.20
2018-04-15T08:53:10.084Z,3.10
2018-04-15T08:54:10.090Z,3.10
2018-04-15T08:55:10.066Z,3.30
2018-04-15T08:56:10.047Z,3.90
2018-04-15T08:57:10.038Z,3.60
2018-04-15T08:58:10.040Z,3.20
2018-04-15T08:59:10.010Z,3.30
2018-04-15T09:00:10.003Z,3.30
2018-04-15T09:01:09.990Z,3.30
2018-04-15T09:02:09.996Z,2.90
2018-04-15T09:03:09.970Z,2.50
2018-04-15T09:04:09.960Z,2.30
2018-04-15T09:05:09.946Z,2.40
2018-04-15T09:06:09.944Z,2.20
2018-04-15T09:07:09.925Z,1.90
2018-04-15T09:08:09.911Z,1.90
2018-04-15T09:09:09.907Z,2.00
2018-04-15T09:10:09.889Z,2.00
2018-04-15T09:11:09.894Z,2.00
2018-04-15T09:12:09.868Z,2.00
2018-04-15T09:13:09.849Z,1.90
2018-04-15T09:14:09.843Z,1.90
2018-04-15T09:15:09.854Z,2.10
2018-04-15T09:16:09.823Z,1.90
2018-04-15T09:17:09.810Z,2.00
2018-04-15T09:18:09.806Z,2.20
2018-04-15T09:19:09.869Z,2.20
2018-04-15T09:20:09.776Z,2.10
2018-04-15T09:21:09.783Z,2.00
2018-04-15T09:22:09.752Z,2.30
2018-04-15T09:23:09.765Z,2.40
2018-04-15T09:24:09.731Z,2.50
2018-04-15T09:25:09.724Z,2.60
2018-04-15T09:26:09.727Z,2.60
2018-04-15T09:27:09.701Z,2.60
2018-04-15T09:28:10.707Z,2.20
2018-04-15T09:29:09.685Z,2.40
2018-04-15T09:30:09.700Z,2.40
2018-04-15T09:31:09.679Z,2.80
2018-04-15T09:32:09.653Z,2.90
2018-04-15T09:33:09.647Z,3.30
2018-04-15T09:34:09.639Z,3.30
2018-04-15T09:35:09.631Z,3.40
2018-04-15T09:36:09.621Z,3.00
2018-04-15T09:37:09.624Z,2.80
2018-04-15T09:38:09.609Z,3.10
2018-04-15T09:39:09.599Z,2.90
2018-04-15T09:40:09.592Z,3.10
2018-04-15T09:41:10.209Z,3.50
2018-04-15T09:42:11.210Z,3.20
2018-04-15T09:43:09.567Z,3.60
2018-04-15T09:44:09.579Z,3.80
2018-04-15T09:45:09.560Z,3.60
2018-04-15T09:46:09.569Z,3.40
2018-04-15T09:47:09.544Z,3.30
2018-04-15T09:48:09.558Z,3.10
2018-04-15T09:49:09.537Z,3.10
2018-04-15T09:50:09.529Z,2.80
2018-04-15T09:51:09.524Z,2.90
2018-04-15T09:52:09.522Z,2.70
2018-04-15T09:53:09.529Z,2.80
2018-04-15T09:54:09.518Z,3.10
2018-04-15T09:55:09.506Z,3.00
2018-04-15T09:56:09.499Z,2.90
2018-04-15T09:57:09.505Z,2.80
2018-04-15T09:58:09.509Z,3.00
2018-04-15T09:59:09.506Z,2.80
2018-04-15T10:00:09.483Z,3.00
2018-04-15T10:01:09.487Z,2.80
2018-04-15T10:02:09.476Z,2.90
2018-04-15T10:03:09.471Z,2.60
2018-04-15T10:04:09.483Z,2.20
2018-04-15T10:05:09.462Z,2.20
2018-04-15T10:06:09.461Z,2.40
2018-04-15T10:07:09.458Z,2.70
2018-04-15T10:08:09.451Z,2.70
2018-04-15T10:09:09.462Z,2.40
2018-04-15T10:10:09.446Z,2.20
2018-04-15T10:11:09.439Z,2.30
2018-04-15T10:12:09.436Z,2.00
2018-04-15T10:13:09.434Z,2.10
2018-04-15T10:14:09.424Z,2.00
2018-04-15T10:15:09.443Z,2.40
2018-04-15T10:16:09.419Z,2.10
2018-04-15T10:17:09.427Z,2.00
2018-04-15T10:18:09.421Z,2.00
2018-04-15T10:19:09.429Z,2.00
2018-04-15T10:20:09.415Z,1.80
2018-04-15T10:21:09.413Z,1.70
2018-04-15T10:22:09.406Z,1.80
2018-04-15T10:23:09.405Z,1.80
2018-04-15T10:24:09.487Z,1.70
2018-04-15T10:25:09.417Z,1.80
2018-04-15T10:26:09.401Z,1.80
2018-04-15T10:27:09.400Z,2.00
2018-04-15T10:28:09.396Z,1.60
2018-04-15T10:29:09.408Z,1.60
2018-04-15T10:30:09.409Z,1.60
2018-04-15T10:31:09.393Z,1.60
2018-04-15T10:32:09.392Z,1.40
2018-04-15T10:33:09.390Z,1.40
2018-04-15T10:34:09.387Z,1.40
2018-04-15T10:35:09.408Z,1.60
2018-04-15T10:36:09.385Z,1.50
2018-04-15T10:37:09.385Z,1.70
2018-04-15T10:38:09.385Z,1.30
2018-04-15T10:39:09.377Z,1.60
2018-04-15T10:40:09.401Z,1.70
2018-04-15T10:41:09.391Z,1.50
2018-04-15T10:42:09.393Z,1.50
2018-04-15T10:43:09.380Z,1.60
2018-04-15T10:44:09.372Z,1.50
2018-04-15T10:45:09.377Z,1.60
2018-04-15T10:46:09.372Z,1.80
2018-04-15T10:47:09.371Z,1.80
2018-04-15T10:48:09.382Z,1.80
2018-04-15T10:49:09.368Z,1.80
2018-04-15T10:50:09.363Z,1.80
2018-04-15T10:51:09.359Z,2.00
2018-04-15T10:52:09.356Z,2.00
2018-04-15T10:53:09.367Z,2.10
2018-04-15T10:54:09.346Z,2.20
2018-04-15T10:55:09.342Z,2.30
2018-04-15T10:56:09.346Z,1.90
2018-04-15T10:57:09.334Z,1.80
2018-04-15T10:58:30.344Z,2.10
2018-04-15T10:59:09.327Z,2.00
2018-04-15T11:00:09.317Z,2.10
2018-04-15T11:01:09.314Z,2.20
2018-04-15T11:02:09.312Z,2.30
2018-04-15T11:03:09.304Z,2.10
2018-04-15T11:04:09.317Z,2.10
2018-04-15T11:05:09.294Z,2.10
2018-04-15T11:06:09.288Z,2.30
2018-04-15T11:07:09.285Z,2.40
2018-04-15T11:08:09.279Z,2.10
2018-04-15T11:09:09.288Z,1.90
2018-04-15T11:10:09.270Z,2.20
2018-04-15T11:11:09.278Z,2.20
2018-04-15T11:12:09.262Z,1.90
2018-04-15T11:13:09.257Z,1.30
2018-04-15T11:14:09.288Z,1.50
2018-04-15T11:15:09.245Z,1.70
2018-04-15T11:16:09.242Z,1.90
2018-04-15T11:17:09.237Z,1.80
2018-04-15T11:18:09.230Z,1.90
2018-04-15T11:19:09.238Z,2.00
2018-04-15T11:20:09.216Z,1.90
2018-04-15T11:21:09.220Z,1.80
2018-04-15T11:22:09.213Z,1.70
2018-04-15T11:23:09.204Z,1.50
2018-04-15T11:24:09.214Z,1.80
2018-04-15T11:25:09.197Z,1.50
2018-04-15T11:26:09.185Z,1.60
2018-04-15T11:27:09.184Z,1.90
2018-04-15T11:28:09.183Z,1.80
2018-04-15T11:29:09.171Z,1.70
2018-04-15T11:30:09.175Z,1.70
2018-04-15T11:31:09.160Z,1.80
2018-04-15T11:32:09.149Z,1.70
2018-04-15T11:33:09.147Z,1.80
2018-04-15T11:34:09.150Z,1.80
2018-04-15T11:35:09.150Z,1.90
2018-04-15T11:36:09.125Z,1.80
2018-04-15T11:37:09.118Z,1.70
2018-04-15T11:38:09.123Z,1.90
2018-04-15T11:39:09.111Z,1.70
2018-04-15T11:40:09.116Z,1.70
2018-04-15T11:41:09.092Z,1.60
2018-04-15T11:42:09.085Z,1.80
2018-04-15T11:43:09.080Z,1.70
2018-04-15T11:44:09.076Z,1.90
2018-04-15T11:45:09.074Z,2.00
2018-04-15T11:46:09.083Z,2.00
2018-04-15T11:47:09.053Z,2.40
2018-04-15T11:48:09.044Z,2.10
2018-04-15T11:49:09.038Z,2.10
2018-04-15T11:50:09.033Z,1.90
2018-04-15T11:51:09.023Z,2.10
2018-04-15T11:52:09.031Z,1.90
2018-04-15T11:53:09.008Z,1.90
2018-04-15T11:54:09.000Z,1.80
2018-04-15T11:55:09.005Z,2.00
2018-04-15T11:56:08.986Z,1.70
2018-04-15T11:57:08.971Z,1.90
2018-04-15T11:58:08.966Z,1.90
2018-04-15T11:59:08.962Z,1.80
2018-04-15T12:00:08.962Z,6.10
2018-04-15T12:01:08.944Z,2.80
2018-04-15T12:02:08.957Z,2.20
2018-04-15T12:03:08.922Z,1.80
2018-04-15T12:04:10.764Z,1.80
2018-04-15T12:05:08.921Z,1.60
2018-04-15T12:06:08.900Z,1.90
2018-04-15T12:07:08.890Z,1.60
2018-04-15T12:08:08.881Z,1.90
2018-04-15T12:09:08.873Z,1.70
2018-04-15T12:10:08.891Z,1.70
2018-04-15T12:11:08.877Z,2.10
2018-04-15T12:12:08.858Z,1.60
2018-04-15T12:13:08.848Z,1.70
2018-04-15T12:14:08.839Z,1.70
2018-04-15T12:15:08.840Z,1.60
2018-04-15T12:16:08.841Z,1.50
2018-04-15T12:17:08.821Z,1.40
2018-04-15T12:18:08.813Z,1.40
2018-04-15T12:19:08.812Z,1.50
2018-04-15T12:20:08.816Z,1.60
2018-04-15T12:21:08.812Z,1.60
2018-04-15T12:22:08.793Z,1.70
2018-04-15T12:23:08.785Z,1.40
2018-04-15T12:24:08.784Z,1.30
2018-04-15T12:25:08.777Z,1.20
2018-04-15T12:26:08.789Z,1.40
2018-04-15T12:27:08.766Z,1.40
2018-04-15T12:28:08.765Z,1.30
2018-04-15T12:29:08.761Z,1.50
2018-04-15T12:30:08.752Z,1.70
2018-04-15T12:31:08.748Z,1.70
2018-04-15T12:32:08.769Z,1.40
2018-04-15T12:33:08.752Z,1.30
2018-04-15T12:34:08.732Z,1.40
2018-04-15T12:35:08.734Z,1.40
2018-04-15T12:36:08.727Z,1.20
2018-04-15T12:37:08.724Z,1.30
2018-04-15T12:38:08.720Z,1.20
2018-04-15T12:39:08.734Z,1.20
2018-04-15T12:40:08.712Z,1.10
2018-04-15T12:41:08.726Z,1.20
2018-04-15T12:42:08.720Z,1.10
2018-04-15T12:43:08.704Z,1.10
2018-04-15T12:44:08.698Z,1.20
2018-04-15T12:45:08.715Z,1.10
2018-04-15T12:46:08.694Z,1.20
2018-04-15T12:47:08.724Z,1.20
2018-04-15T12:48:08.684Z,1.30
2018-04-15T12:49:08.680Z,1.20
2018-04-15T12:50:08.680Z,1.30
2018-04-15T12:51:08.677Z,1.40
2018-04-15T12:52:08.687Z,1.40
2018-04-15T12:53:08.667Z,1.50
2018-04-15T12:54:08.662Z,1.30
2018-04-15T12:55:08.659Z,1.30
2018-04-15T12:56:08.651Z,1.40
2018-04-15T12:57:08.669Z,1.20
2018-04-15T12:58:08.655Z,1.10
2018-04-15T12:59:08.651Z,1.20
2018-04-15T13:00:08.643Z,1.10
2018-04-15T13:01:08.656Z,1.10
2018-04-15T13:02:08.658Z,1.20
2018-04-15T13:03:08.629Z,1.10
2018-04-15T13:04:08.634Z,1.40
2018-04-15T13:05:08.629Z,1.10